South Charleston, OH (45368)

2:25 AM EST on February 08, 2016 (GMT -0500)
Werner Ent. Springfield, OH | | Change Station
CLOSE
Current Station
Personal Weather Station
Location: Springfield, OH
Elevation: 1048 ft
Nearby Weather Stations

Elev 1048 ft 39.90 °N, 83.73 °W | Updated 5 seconds ago

Overcast
Overcast
44.1 °F
Feels Like 41 °F
N
6.0
Wind Variable Wind from SW
Gusts 7.0 mph

Today
High -- | Low -- °F
--% Chance of Precip.
Yesterday
High -- | Low -- °F
Precip. -- in
Pressure 29.73 in
Visibility 10.0 miles
Clouds Scattered Clouds 3700 ft
Overcast 4500 ft
Windchill 41 °F
Dew Point 33 °F
Humidity 64%
Rainfall 0.00 in
Snow Depth Not available.
7:36 AM 6:02 PM
Waning Crescent, 0% visible
METAR KSGH 080656Z AUTO 23009KT 10SM SCT037 OVC045 06/M01 A2972 RMK AO2 T00611011 SLP065
Pressure 29.73 in
Visibility 10.0 miles
Clouds Scattered Clouds 3700 ft
Overcast 4500 ft
Windchill 41 °F
Dew Point 33 °F
Humidity 64%
Rainfall 0.00 in
Snow Depth Not available.
7:36 AM 6:02 PM
Waning Crescent, 0% visible
METAR KSGH 080656Z AUTO 23009KT 10SM SCT037 OVC045 06/M01 A2972 RMK AO2 T00611011 SLP065

10-Day Weather Forecast

Almanac

Astronomy

Feb. 08, 2016 Rise Set
Actual Time
Civil Twilight
Nautical Twilight
Astronomical Twilight
Moon
Length of Visible Light
Length of Day
Tomorrow will be .
, % of the Moon is Illuminated

Today's Extremes

State Highs State Lows

Community

WunderPhotos

Upload Photos

1,891,394 photos uploaded!

WunderBlog® & News

Nearby

Air Quality

  Air Quality AQ Index Pollutant
Not available.

Snow Depth

Station Depth Elevation

Earthquake Activity

City Distance Mag. Time & Date
Minimum magnitude displayed is 2.5.

Coastal Water Temperatures

Place Temperature

Stations

Nearby Weather Stations

Station Location Temp. Windchill Dew Point Humidity Wind Precip. Elev Updated Type
                   

Watches & Warnings

There are currently no watches in effect.